Mc Allen Miller International Airport Mc Allen US
ICAO: KMFE
IATA: MFE
Category: Medium
Scheduled Services: Yes

Elevation: 107 ft
TransAlt. 18000 ft.

Airport Communications:
VALLEY APP/DEP:121
ASOS:128.5
ATIS:128.5
CTAF:118.5
GND:121.8
SAN ANGELO RDO:122.2
TWR:118.5
UNICOM:122.95

KMFE Zoom In..

Runways:

(A) RW 13 length 7120 ft width 150 ft
ILS 111.70 / hdg 134

(B) RW 18 length 2638 ft width 60 ft
---- / hdg 182

(C) RW 31 length 7120 ft width 150 ft
ILS 111.70 / hdg 314

(D) RW 36 length 2638 ft width 60 ft
---- / hdg 2

Location; KMFE
Day. 23 / Time. 09.53 Zulu
* Altimeter: 29.86
* Temperature: 27° c. 80.6°f.
* Wind from: 150° Speed 10 kn.
Dewpoint: 25° c.
Visibility: 9 Statute Miles.
Clouds: Clear (automated report).

KMFE 230953Z AUTO 15010KT 9SM CLR 27/25 A2986 RMK AO2 SLP109 T02670250


Wind From 150°
Speed 10 kn.

 
 
jpsmedia.com for Web Design worldairports.se 2018   terms of use